createdAt,value
2023-04-18T00:00:16.104Z,6.26
2023-04-18T00:00:49.341Z,6.23
2023-04-18T00:01:21.638Z,6.25
2023-04-18T00:01:53.335Z,6.23
2023-04-18T00:02:26.110Z,6.25
2023-04-18T00:02:59.264Z,6.30
2023-04-18T00:03:33.296Z,6.25
2023-04-18T00:04:05.584Z,6.26
2023-04-18T00:04:37.622Z,6.22
2023-04-18T00:05:09.756Z,6.23
2023-04-18T00:05:41.982Z,6.20
2023-04-18T00:06:14.132Z,6.21
2023-04-18T00:06:47.215Z,6.20
2023-04-18T00:07:18.761Z,6.17
2023-04-18T00:07:51.379Z,6.10
2023-04-18T00:08:22.875Z,6.10
2023-04-18T00:08:54.391Z,6.08
2023-04-18T00:09:26.067Z,6.09
2023-04-18T00:09:57.827Z,6.07
2023-04-18T00:10:29.380Z,6.03
2023-04-18T00:11:00.912Z,6.02
2023-04-18T00:11:32.496Z,6.07
2023-04-18T00:12:04.923Z,6.05
2023-04-18T00:12:36.756Z,6.06
2023-04-18T00:13:08.277Z,6.05
2023-04-18T00:13:40.533Z,6.10
2023-04-18T00:14:12.381Z,6.08
2023-04-18T00:14:44.248Z,6.08
2023-04-18T00:15:18.958Z,6.13
2023-04-18T00:15:54.162Z,6.12
2023-04-18T00:16:25.771Z,6.12
2023-04-18T00:16:57.573Z,6.17
2023-04-18T00:17:30.340Z,6.14
2023-04-18T00:18:03.748Z,6.11
2023-04-18T00:18:36.964Z,6.12
2023-04-18T00:19:08.779Z,6.05
2023-04-18T00:19:43.306Z,6.06
2023-04-18T00:20:15.034Z,6.05
2023-04-18T00:20:46.972Z,5.97
2023-04-18T00:21:18.937Z,6.01
2023-04-18T00:21:53.157Z,6.02
2023-04-18T00:22:25.561Z,5.94
2023-04-18T00:22:57.116Z,5.94
2023-04-18T00:23:30.259Z,5.95
2023-04-18T00:24:02.054Z,5.97
2023-04-18T00:24:33.761Z,5.93
2023-04-18T00:25:05.688Z,5.94
2023-04-18T00:25:37.204Z,5.92
2023-04-18T00:26:09.166Z,5.97
2023-04-18T00:26:40.844Z,5.96
2023-04-18T00:27:13.012Z,5.94
2023-04-18T00:27:44.616Z,5.95
2023-04-18T00:28:16.183Z,5.97
2023-04-18T00:28:47.702Z,5.93
2023-04-18T00:29:19.290Z,5.86
2023-04-18T00:29:50.861Z,5.87
2023-04-18T00:30:22.454Z,5.93
2023-04-18T00:30:54.041Z,5.94
2023-04-18T00:31:26.052Z,5.96
2023-04-18T00:31:58.072Z,5.97
2023-04-18T00:32:29.684Z,5.93
2023-04-18T00:33:04.485Z,5.96
2023-04-18T00:33:36.113Z,5.91
2023-04-18T00:34:07.649Z,5.91
2023-04-18T00:34:40.429Z,5.87
2023-04-18T00:35:11.991Z,5.86
2023-04-18T00:35:43.673Z,5.91
2023-04-18T00:36:15.209Z,5.88
2023-04-18T00:36:46.732Z,5.86
2023-04-18T00:37:18.253Z,5.83
2023-04-18T00:37:49.876Z,5.80
2023-04-18T00:38:21.377Z,5.81
2023-04-18T00:38:52.996Z,5.88
2023-04-18T00:39:24.514Z,5.87
2023-04-18T00:39:56.123Z,5.85
2023-04-18T00:40:27.676Z,5.81
2023-04-18T00:40:59.263Z,5.81
2023-04-18T00:41:31.315Z,5.83
2023-04-18T00:42:04.061Z,5.81
2023-04-18T00:42:35.609Z,5.79
2023-04-18T00:43:08.087Z,5.77
2023-04-18T00:43:39.661Z,5.81
2023-04-18T00:44:11.347Z,5.79
2023-04-18T00:44:43.026Z,5.75
2023-04-18T00:45:14.727Z,5.74
2023-04-18T00:45:46.383Z,5.73
2023-04-18T00:46:18.026Z,5.78
2023-04-18T00:46:49.695Z,5.79
2023-04-18T00:47:21.333Z,5.81
2023-04-18T00:47:53.323Z,5.77
2023-04-18T00:48:24.900Z,5.77
2023-04-18T00:48:58.777Z,5.70
2023-04-18T00:49:30.835Z,5.63
2023-04-18T00:50:02.523Z,5.63
2023-04-18T00:50:34.104Z,5.64
2023-04-18T00:51:07.627Z,5.68
2023-04-18T00:51:39.968Z,5.64
2023-04-18T00:52:14.783Z,5.60
2023-04-18T00:52:47.100Z,5.58
2023-04-18T00:53:18.642Z,5.58
2023-04-18T00:53:50.740Z,5.64
2023-04-18T00:54:22.706Z,5.63
2023-04-18T00:54:54.644Z,5.63
2023-04-18T00:55:26.185Z,5.58
2023-04-18T00:55:57.900Z,5.58
2023-04-18T00:56:29.875Z,5.61
2023-04-18T00:57:02.864Z,5.60
2023-04-18T00:57:34.638Z,5.63
2023-04-18T00:58:07.616Z,5.61
2023-04-18T00:58:40.938Z,5.57
2023-04-18T00:59:13.541Z,5.55
2023-04-18T00:59:46.734Z,5.55
2023-04-18T01:00:18.492Z,5.57
2023-04-18T01:00:50.261Z,5.57
2023-04-18T01:01:22.116Z,5.55
2023-04-18T01:01:53.980Z,5.55
2023-04-18T01:02:26.460Z,5.56
2023-04-18T01:02:59.297Z,5.48
2023-04-18T01:03:32.713Z,5.48
2023-04-18T01:04:04.567Z,5.43
2023-04-18T01:04:37.302Z,5.43
2023-04-18T01:05:09.138Z,5.42
2023-04-18T01:05:42.188Z,5.42
2023-04-18T01:06:13.910Z,5.43
2023-04-18T01:06:45.745Z,5.46
2023-04-18T01:07:17.552Z,5.45
2023-04-18T01:07:49.359Z,5.42
2023-04-18T01:08:21.998Z,5.44
2023-04-18T01:08:56.455Z,5.48
2023-04-18T01:09:29.935Z,5.48
2023-04-18T01:10:02.180Z,5.49
2023-04-18T01:10:33.947Z,5.48
2023-04-18T01:11:05.668Z,5.44
2023-04-18T01:11:37.257Z,5.41
2023-04-18T01:12:08.770Z,5.42
2023-04-18T01:12:41.006Z,5.42
2023-04-18T01:13:14.297Z,5.36
2023-04-18T01:14:02.918Z,5.31
2023-04-18T01:14:34.458Z,5.32
2023-04-18T01:15:08.476Z,5.26
2023-04-18T01:15:42.717Z,5.20
2023-04-18T01:16:14.392Z,5.25
2023-04-18T01:16:46.364Z,5.30
2023-04-18T01:17:19.283Z,5.22
2023-04-18T01:17:52.427Z,5.23
2023-04-18T01:18:25.507Z,5.22
2023-04-18T01:18:57.218Z,5.21
2023-04-18T01:19:28.737Z,5.18
2023-04-18T01:20:04.957Z,5.15
2023-04-18T01:20:45.812Z,5.14
2023-04-18T01:21:18.193Z,5.16
2023-04-18T01:21:54.351Z,5.15
2023-04-18T01:22:26.887Z,5.12
2023-04-18T01:22:58.849Z,5.16
2023-04-18T01:23:30.726Z,5.15
2023-04-18T01:24:12.974Z,5.10
2023-04-18T01:24:49.276Z,5.11
2023-04-18T01:25:21.907Z,5.09
2023-04-18T01:25:53.410Z,5.11
2023-04-18T01:26:24.963Z,5.10
2023-04-18T01:26:57.238Z,5.07
2023-04-18T01:27:28.917Z,5.09
2023-04-18T01:28:00.902Z,5.12
2023-04-18T01:28:36.525Z,5.07
2023-04-18T01:29:08.103Z,5.03
2023-04-18T01:29:40.008Z,5.05
2023-04-18T01:30:11.904Z,5.06
2023-04-18T01:30:43.594Z,5.10
2023-04-18T01:31:15.338Z,5.11
2023-04-18T01:31:47.135Z,5.14
2023-04-18T01:32:21.270Z,5.11
2023-04-18T01:32:52.892Z,5.03
2023-04-18T01:33:24.550Z,4.99
2023-04-18T01:33:56.085Z,5.00
2023-04-18T01:34:27.845Z,5.03
2023-04-18T01:34:59.370Z,5.04
2023-04-18T01:35:32.992Z,5.03
2023-04-18T01:36:04.864Z,4.98
2023-04-18T01:36:38.912Z,4.99
2023-04-18T01:37:10.440Z,4.96
2023-04-18T01:37:41.976Z,4.95
2023-04-18T01:38:13.561Z,4.96
2023-04-18T01:38:45.163Z,4.92
2023-04-18T01:39:18.357Z,4.93
2023-04-18T01:39:50.426Z,4.98
2023-04-18T01:40:24.436Z,5.05
2023-04-18T01:40:56.450Z,5.08
2023-04-18T01:41:32.473Z,5.16
2023-04-18T01:42:04.547Z,5.16
2023-04-18T01:42:36.151Z,5.13
2023-04-18T01:43:07.706Z,5.08
2023-04-18T01:43:42.385Z,5.03
2023-04-18T01:44:14.562Z,5.03
2023-04-18T01:44:46.306Z,5.03
2023-04-18T01:45:19.418Z,5.03
2023-04-18T01:45:51.326Z,5.04
2023-04-18T01:46:22.953Z,5.05
2023-04-18T01:46:54.693Z,5.06
2023-04-18T01:47:26.396Z,5.03
2023-04-18T01:47:57.954Z,4.98
2023-04-18T01:48:29.563Z,4.99
2023-04-18T01:49:01.130Z,4.99
2023-04-18T01:49:32.802Z,5.01
2023-04-18T01:50:04.774Z,5.02
2023-04-18T01:50:36.304Z,5.04
2023-04-18T01:51:08.083Z,5.00
2023-04-18T01:51:39.620Z,5.01
2023-04-18T01:52:14.245Z,4.99
2023-04-18T01:52:45.924Z,5.00
2023-04-18T01:53:17.939Z,5.00
2023-04-18T01:53:49.713Z,4.98
2023-04-18T01:54:21.241Z,4.95
2023-04-18T01:54:52.842Z,4.96
2023-04-18T01:55:24.443Z,4.96
2023-04-18T01:55:57.687Z,4.98
2023-04-18T01:56:29.202Z,4.96
2023-04-18T01:57:03.428Z,4.96
2023-04-18T01:57:36.780Z,5.00
2023-04-18T01:58:08.320Z,4.96
2023-04-18T01:58:41.718Z,4.95
2023-04-18T01:59:13.335Z,4.93
2023-04-18T01:59:44.856Z,4.90
2023-04-18T02:00:16.764Z,4.96
2023-04-18T02:00:48.806Z,4.91
2023-04-18T02:01:20.529Z,4.88
2023-04-18T02:01:52.679Z,4.90
2023-04-18T02:02:24.416Z,4.89
2023-04-18T02:02:59.012Z,4.87
2023-04-18T02:03:31.149Z,4.90
2023-04-18T02:04:02.762Z,4.91
2023-04-18T02:04:34.324Z,4.90
2023-04-18T02:05:06.716Z,4.92
2023-04-18T02:05:38.385Z,4.93
2023-04-18T02:06:12.541Z,4.87
2023-04-18T02:06:44.131Z,4.85
2023-04-18T02:07:15.802Z,4.84
2023-04-18T02:07:49.263Z,4.85
2023-04-18T02:08:20.812Z,4.85
2023-04-18T02:08:52.336Z,4.80
2023-04-18T02:09:23.961Z,4.84
2023-04-18T02:09:55.581Z,4.83
2023-04-18T02:10:27.154Z,4.84
2023-04-18T02:10:59.017Z,4.82
2023-04-18T02:11:30.624Z,4.81
2023-04-18T02:12:02.728Z,4.79
2023-04-18T02:12:34.367Z,4.78
2023-04-18T02:13:06.849Z,4.78
2023-04-18T02:13:38.431Z,4.76
2023-04-18T02:14:11.925Z,4.74
2023-04-18T02:14:43.836Z,4.76
2023-04-18T02:15:15.606Z,4.79
2023-04-18T02:15:47.135Z,4.78
2023-04-18T02:16:19.786Z,4.79
2023-04-18T02:16:51.419Z,4.81
2023-04-18T02:17:23.700Z,4.79
2023-04-18T02:17:55.508Z,4.79
2023-04-18T02:18:28.382Z,4.73
2023-04-18T02:19:00.217Z,4.70
2023-04-18T02:19:31.756Z,4.68
2023-04-18T02:20:03.793Z,4.64
2023-04-18T02:20:36.346Z,4.64
2023-04-18T02:21:09.553Z,4.69
2023-04-18T02:21:41.942Z,4.67
2023-04-18T02:22:13.559Z,4.68
2023-04-18T02:22:47.877Z,4.69
2023-04-18T02:23:19.487Z,4.67
2023-04-18T02:23:52.411Z,4.68
2023-04-18T02:24:26.719Z,4.68
2023-04-18T02:24:58.239Z,4.68
2023-04-18T02:25:30.356Z,4.68
2023-04-18T02:26:01.905Z,4.72
2023-04-18T02:26:33.429Z,4.73
2023-04-18T02:27:05.256Z,4.72
2023-04-18T02:27:36.808Z,4.75
2023-04-18T02:28:08.338Z,4.75
2023-04-18T02:28:40.103Z,4.77
2023-04-18T02:29:11.829Z,4.79
2023-04-18T02:29:43.358Z,4.79
2023-04-18T02:30:15.104Z,4.81
2023-04-18T02:30:46.603Z,4.79
2023-04-18T02:31:20.976Z,4.81
2023-04-18T02:31:52.588Z,4.86
2023-04-18T02:32:24.162Z,4.90
2023-04-18T02:32:59.368Z,4.93
2023-04-18T02:33:30.975Z,4.96
2023-04-18T02:34:02.535Z,4.97
2023-04-18T02:34:34.117Z,4.97
2023-04-18T02:35:05.975Z,4.96
2023-04-18T02:35:38.109Z,4.96
2023-04-18T02:36:10.678Z,4.97
2023-04-18T02:36:43.101Z,5.00
2023-04-18T02:37:15.291Z,5.03
2023-04-18T02:37:47.041Z,5.04
2023-04-18T02:38:18.565Z,5.07
2023-04-18T02:38:50.099Z,5.08
2023-04-18T02:39:24.791Z,5.09
2023-04-18T02:39:56.947Z,5.10
2023-04-18T02:40:28.479Z,5.13
2023-04-18T02:41:00.007Z,5.16
2023-04-18T02:41:31.844Z,5.16
2023-04-18T02:42:03.473Z,5.17
2023-04-18T02:42:34.991Z,5.18
2023-04-18T02:43:06.744Z,5.23
2023-04-18T02:43:38.287Z,5.23
2023-04-18T02:44:10.027Z,5.25
2023-04-18T02:44:43.761Z,5.25
2023-04-18T02:45:15.364Z,5.27
2023-04-18T02:45:47.000Z,5.26
2023-04-18T02:46:19.319Z,5.28
2023-04-18T02:46:55.226Z,5.32
2023-04-18T02:47:27.041Z,5.33
2023-04-18T02:47:58.854Z,5.35
2023-04-18T02:48:30.527Z,5.35
2023-04-18T02:49:02.246Z,5.38
2023-04-18T02:49:33.782Z,5.36
2023-04-18T02:50:06.460Z,5.38
2023-04-18T02:50:38.538Z,5.39
2023-04-18T02:51:10.200Z,5.42
2023-04-18T02:51:42.901Z,5.41
2023-04-18T02:52:14.866Z,5.41
2023-04-18T02:52:46.506Z,5.44
2023-04-18T02:53:18.108Z,5.46
2023-04-18T02:53:58.714Z,5.46
2023-04-18T02:54:35.599Z,5.42
2023-04-18T02:55:14.522Z,5.41
2023-04-18T02:55:48.212Z,5.43
2023-04-18T02:56:21.749Z,5.45
2023-04-18T02:57:20.170Z,5.45
2023-04-18T02:58:17.707Z,5.38
2023-04-18T02:59:10.665Z,5.43
2023-04-18T02:59:59.765Z,5.40
2023-04-18T03:00:55.466Z,5.40
2023-04-18T03:01:51.158Z,5.39
2023-04-18T03:02:25.444Z,5.41
2023-04-18T03:03:01.510Z,5.41
2023-04-18T03:03:55.854Z,5.42
2023-04-18T03:04:38.384Z,5.44
2023-04-18T03:05:12.710Z,5.45
2023-04-18T03:05:44.292Z,5.48
2023-04-18T03:06:16.040Z,5.48
2023-04-18T03:06:48.334Z,5.47
2023-04-18T03:07:20.554Z,5.48
2023-04-18T03:07:54.148Z,5.49
2023-04-18T03:08:25.917Z,5.50
2023-04-18T03:08:58.890Z,5.54
2023-04-18T03:09:30.810Z,5.54
2023-04-18T03:10:07.437Z,5.52
2023-04-18T03:10:41.296Z,5.53
2023-04-18T03:11:13.244Z,5.52
2023-04-18T03:11:44.985Z,5.55
2023-04-18T03:12:16.804Z,5.56
2023-04-18T03:12:48.484Z,5.54
2023-04-18T03:13:21.806Z,5.51
2023-04-18T03:13:53.777Z,5.52
2023-04-18T03:14:27.139Z,5.54
2023-04-18T03:15:00.387Z,5.53
2023-04-18T03:15:32.544Z,5.51
2023-04-18T03:16:04.452Z,5.55
2023-04-18T03:16:36.792Z,5.54
2023-04-18T03:17:10.284Z,5.58
2023-04-18T03:17:45.698Z,5.56
2023-04-18T03:18:18.362Z,5.55
2023-04-18T03:18:50.330Z,5.56
2023-04-18T03:19:22.368Z,5.57
2023-04-18T03:19:55.821Z,5.59
2023-04-18T03:20:28.311Z,5.61
2023-04-18T03:20:59.927Z,5.61
2023-04-18T03:21:33.574Z,5.61
2023-04-18T03:22:05.998Z,5.58
2023-04-18T03:22:39.394Z,5.61
2023-04-18T03:23:11.300Z,5.59
2023-04-18T03:23:43.725Z,5.58
2023-04-18T03:24:15.923Z,5.59
2023-04-18T03:24:51.472Z,5.63
2023-04-18T03:25:24.496Z,5.61
2023-04-18T03:26:00.137Z,5.63
2023-04-18T03:26:34.986Z,5.65
2023-04-18T03:27:06.698Z,5.63
2023-04-18T03:27:39.046Z,5.62
2023-04-18T03:28:10.676Z,5.64
2023-04-18T03:28:42.277Z,5.67
2023-04-18T03:29:14.119Z,5.68
2023-04-18T03:29:48.580Z,5.66
2023-04-18T03:30:20.715Z,5.67
2023-04-18T03:30:59.095Z,5.65
2023-04-18T03:31:32.062Z,5.67
2023-04-18T03:32:03.770Z,5.65
2023-04-18T03:32:36.381Z,5.66
2023-04-18T03:33:08.684Z,5.68
2023-04-18T03:33:42.433Z,5.70
2023-04-18T03:34:15.642Z,5.66
2023-04-18T03:34:48.860Z,5.63
2023-04-18T03:35:20.817Z,5.62
2023-04-18T03:35:52.390Z,5.64
2023-04-18T03:36:25.451Z,5.64
2023-04-18T03:36:58.670Z,5.66
2023-04-18T03:37:32.233Z,5.68
2023-04-18T03:38:04.867Z,5.69
2023-04-18T03:38:41.623Z,5.67
2023-04-18T03:39:13.672Z,5.70
2023-04-18T03:39:45.544Z,5.68
2023-04-18T03:40:19.016Z,5.68
2023-04-18T03:40:52.319Z,5.68
2023-04-18T03:41:30.064Z,5.69
2023-04-18T03:42:02.586Z,5.69
2023-04-18T03:42:34.640Z,5.69
2023-04-18T03:43:06.174Z,5.69
2023-04-18T03:43:37.723Z,5.68
2023-04-18T03:44:09.343Z,5.67
2023-04-18T03:44:42.577Z,5.69
2023-04-18T03:45:14.373Z,5.70
2023-04-18T03:45:47.483Z,5.68
2023-04-18T03:46:22.027Z,5.71
2023-04-18T03:46:57.301Z,5.74
2023-04-18T03:47:31.483Z,5.74
2023-04-18T03:48:04.396Z,5.71
2023-04-18T03:48:40.072Z,5.73
2023-04-18T03:49:14.306Z,5.73
2023-04-18T03:49:46.164Z,5.72
2023-04-18T03:50:17.916Z,5.75
2023-04-18T03:50:51.111Z,5.73
2023-04-18T03:51:22.804Z,5.72
2023-04-18T03:51:54.316Z,5.73
2023-04-18T03:52:27.051Z,5.73
2023-04-18T03:53:00.741Z,5.74
2023-04-18T03:53:36.048Z,5.73
2023-04-18T03:54:07.828Z,5.74
2023-04-18T03:54:39.347Z,5.73
2023-04-18T03:55:11.474Z,5.74
2023-04-18T03:55:43.543Z,5.73
2023-04-18T03:56:17.520Z,5.75
2023-04-18T03:56:54.189Z,5.74
2023-04-18T03:57:26.335Z,5.74
2023-04-18T03:57:59.193Z,5.77
2023-04-18T03:58:33.676Z,5.77
2023-04-18T03:59:05.269Z,5.77
2023-04-18T03:59:37.083Z,5.77
2023-04-18T04:00:10.422Z,5.76
2023-04-18T04:00:47.676Z,5.75
2023-04-18T04:01:19.216Z,5.76
2023-04-18T04:01:50.784Z,5.73
2023-04-18T04:02:23.417Z,5.72
2023-04-18T04:02:55.561Z,5.73
2023-04-18T04:03:27.930Z,5.74
2023-04-18T04:04:01.741Z,5.76
2023-04-18T04:04:33.932Z,5.73
2023-04-18T04:05:05.795Z,5.73
2023-04-18T04:05:38.367Z,5.73
2023-04-18T04:06:10.338Z,5.75
2023-04-18T04:06:41.954Z,5.73
2023-04-18T04:07:13.829Z,5.73
2023-04-18T04:07:45.516Z,5.73
2023-04-18T04:08:17.886Z,5.73
2023-04-18T04:08:50.624Z,5.74
2023-04-18T04:09:26.951Z,5.73
2023-04-18T04:09:58.728Z,5.72
2023-04-18T04:10:30.316Z,5.72
2023-04-18T04:11:02.958Z,5.74
2023-04-18T04:11:34.612Z,5.75
2023-04-18T04:12:06.384Z,5.73
2023-04-18T04:12:38.549Z,5.73
2023-04-18T04:13:11.019Z,5.75
2023-04-18T04:13:44.638Z,5.75
2023-04-18T04:14:17.779Z,5.73
2023-04-18T04:14:51.110Z,5.72
2023-04-18T04:15:22.844Z,5.71
2023-04-18T04:16:05.942Z,5.74
2023-04-18T04:16:38.633Z,5.70
2023-04-18T04:17:11.187Z,5.70
2023-04-18T04:17:44.053Z,5.70
2023-04-18T04:18:16.295Z,5.69
2023-04-18T04:18:48.858Z,5.72
2023-04-18T04:19:20.807Z,5.71
2023-04-18T04:19:59.794Z,5.71
2023-04-18T04:20:33.176Z,5.69
2023-04-18T04:21:13.081Z,5.64
2023-04-18T04:21:50.609Z,5.66
2023-04-18T04:22:22.448Z,5.64
2023-04-18T04:22:55.265Z,5.61
2023-04-18T04:23:27.253Z,5.59
2023-04-18T04:23:58.832Z,5.60
2023-04-18T04:24:57.808Z,5.58
2023-04-18T04:25:35.276Z,5.57
2023-04-18T04:26:14.720Z,5.56
2023-04-18T04:26:53.092Z,5.52
2023-04-18T04:27:28.104Z,5.46
2023-04-18T04:28:01.492Z,5.50
2023-04-18T04:28:33.880Z,5.48
2023-04-18T04:29:10.197Z,5.46
2023-04-18T04:29:43.789Z,5.48
2023-04-18T04:30:15.655Z,5.48
2023-04-18T04:30:47.399Z,5.52
2023-04-18T04:31:19.892Z,5.47
2023-04-18T04:31:51.942Z,5.52
2023-04-18T04:32:33.024Z,5.56
2023-04-18T04:33:06.609Z,5.58
2023-04-18T04:33:39.002Z,5.57
2023-04-18T04:34:16.932Z,5.51
2023-04-18T04:34:49.485Z,5.51
2023-04-18T04:35:21.258Z,5.51
2023-04-18T04:35:52.971Z,5.55
2023-04-18T04:36:27.227Z,5.55
2023-04-18T04:37:01.419Z,5.54
2023-04-18T04:37:34.682Z,5.54
2023-04-18T04:38:16.729Z,5.52
2023-04-18T04:38:52.585Z,5.50
2023-04-18T04:39:31.386Z,5.53
2023-04-18T04:40:29.145Z,5.48
2023-04-18T04:41:09.309Z,5.53
2023-04-18T04:41:41.462Z,5.51
2023-04-18T04:42:13.657Z,5.44
2023-04-18T04:42:56.166Z,5.46
2023-04-18T04:43:34.252Z,5.48
2023-04-18T04:44:06.762Z,5.51
2023-04-18T04:44:41.575Z,5.52
2023-04-18T04:45:13.799Z,5.50
2023-04-18T04:45:45.531Z,5.52
2023-04-18T04:46:20.027Z,5.51
2023-04-18T04:46:54.518Z,5.53
2023-04-18T04:47:35.603Z,5.52
2023-04-18T04:48:11.071Z,5.52
2023-04-18T04:48:42.669Z,5.55
2023-04-18T04:49:14.290Z,5.54
2023-04-18T04:49:47.092Z,5.52
2023-04-18T04:50:18.740Z,5.56
2023-04-18T04:50:57.477Z,5.62
2023-04-18T04:51:29.073Z,5.60
2023-04-18T04:52:04.510Z,5.62
2023-04-18T04:52:36.527Z,5.64
2023-04-18T04:53:08.768Z,5.67
2023-04-18T04:53:40.511Z,5.66
2023-04-18T04:54:12.736Z,5.68
2023-04-18T04:54:45.927Z,5.67
2023-04-18T04:55:20.083Z,5.70
2023-04-18T04:55:51.862Z,5.70
2023-04-18T04:56:23.828Z,5.72
2023-04-18T04:56:55.382Z,5.72
2023-04-18T04:57:27.137Z,5.69
2023-04-18T04:57:58.932Z,5.67
2023-04-18T04:58:47.352Z,5.71
2023-04-18T04:59:24.236Z,5.74
2023-04-18T04:59:55.999Z,5.71
2023-04-18T05:00:28.841Z,5.71
2023-04-18T05:01:00.735Z,5.75
2023-04-18T05:01:32.432Z,5.79
2023-04-18T05:02:04.229Z,5.79
2023-04-18T05:02:36.077Z,5.77
2023-04-18T05:03:08.339Z,5.79
2023-04-18T05:03:40.744Z,5.79
2023-04-18T05:04:12.896Z,5.81
2023-04-18T05:04:44.736Z,5.82
2023-04-18T05:05:16.305Z,5.85
2023-04-18T05:05:50.611Z,5.82
2023-04-18T05:06:22.764Z,5.81
2023-04-18T05:06:54.365Z,5.82
2023-04-18T05:07:26.019Z,5.83
2023-04-18T05:07:57.651Z,5.86
2023-04-18T05:08:29.222Z,5.87
2023-04-18T05:09:01.198Z,5.90
2023-04-18T05:09:32.758Z,5.91
2023-04-18T05:10:04.533Z,5.94
2023-04-18T05:10:39.072Z,5.93
2023-04-18T05:11:10.592Z,5.95
2023-04-18T05:11:42.107Z,5.96
2023-04-18T05:12:13.679Z,5.97
2023-04-18T05:12:45.271Z,5.98
2023-04-18T05:13:17.159Z,5.96
2023-04-18T05:13:48.702Z,5.96
2023-04-18T05:14:20.871Z,5.96
2023-04-18T05:14:52.364Z,5.97
2023-04-18T05:15:24.720Z,5.96
2023-04-18T05:15:56.729Z,5.97
2023-04-18T05:16:28.305Z,6.00
2023-04-18T05:17:00.259Z,6.00
2023-04-18T05:17:31.928Z,6.04
2023-04-18T05:18:03.735Z,6.02
2023-04-18T05:18:39.095Z,6.01
2023-04-18T05:19:10.943Z,6.01
2023-04-18T05:19:44.266Z,6.01
2023-04-18T05:20:16.060Z,6.02
2023-04-18T05:20:47.714Z,6.00
2023-04-18T05:21:19.335Z,6.03
2023-04-18T05:21:50.988Z,6.02
2023-04-18T05:22:23.382Z,6.03
2023-04-18T05:22:54.889Z,6.04
2023-04-18T05:23:26.905Z,6.03
2023-04-18T05:23:58.459Z,6.02
2023-04-18T05:24:31.785Z,6.06
2023-04-18T05:25:03.660Z,6.09
2023-04-18T05:25:35.405Z,6.08
2023-04-18T05:26:07.238Z,6.08
2023-04-18T05:26:38.904Z,6.10
2023-04-18T05:27:10.504Z,6.08
2023-04-18T05:27:43.333Z,6.08
2023-04-18T05:28:15.195Z,6.11
2023-04-18T05:28:46.735Z,6.12
2023-04-18T05:29:18.275Z,6.13
2023-04-18T05:29:50.322Z,6.15
2023-04-18T05:30:21.982Z,6.10
2023-04-18T05:31:00.958Z,6.10
2023-04-18T05:31:32.615Z,6.11
2023-04-18T05:32:04.378Z,6.15
2023-04-18T05:32:35.992Z,6.12
2023-04-18T05:33:07.900Z,6.12
2023-04-18T05:33:39.514Z,6.16
2023-04-18T05:34:11.226Z,6.19
2023-04-18T05:34:43.008Z,6.18
2023-04-18T05:35:14.597Z,6.19
2023-04-18T05:35:46.494Z,6.22
2023-04-18T05:36:18.050Z,6.22
2023-04-18T05:36:49.605Z,6.22
2023-04-18T05:37:22.317Z,6.24
2023-04-18T05:37:53.871Z,6.22
2023-04-18T05:38:25.558Z,6.27
2023-04-18T05:38:57.077Z,6.29
2023-04-18T05:39:28.613Z,6.32
2023-04-18T05:40:00.914Z,6.32
2023-04-18T05:40:32.802Z,6.30
2023-04-18T05:41:04.422Z,6.28
2023-04-18T05:41:36.038Z,6.27
2023-04-18T05:42:07.748Z,6.28
2023-04-18T05:42:39.383Z,6.29
2023-04-18T05:43:11.137Z,6.28
2023-04-18T05:43:44.475Z,6.27
2023-04-18T05:44:21.460Z,6.32
2023-04-18T05:44:53.210Z,6.33
2023-04-18T05:45:24.754Z,6.31
2023-04-18T05:45:57.889Z,6.31
2023-04-18T05:46:32.457Z,6.32
2023-04-18T05:47:06.268Z,6.32
2023-04-18T05:47:37.923Z,6.35
2023-04-18T05:48:09.630Z,6.38
2023-04-18T05:48:41.273Z,6.38
2023-04-18T05:49:13.117Z,6.41
2023-04-18T05:49:44.771Z,6.41
2023-04-18T05:50:16.457Z,6.42
2023-04-18T05:50:48.103Z,6.44
2023-04-18T05:51:19.635Z,6.45
2023-04-18T05:51:52.824Z,6.45
2023-04-18T05:52:26.095Z,6.48
2023-04-18T05:52:59.280Z,6.48
2023-04-18T05:53:30.858Z,6.48
2023-04-18T05:54:02.556Z,6.48
2023-04-18T05:54:34.181Z,6.52
2023-04-18T05:55:06.765Z,6.53
2023-04-18T05:55:40.412Z,6.51
2023-04-18T05:56:12.051Z,6.53
2023-04-18T05:56:43.828Z,6.54
2023-04-18T05:57:15.970Z,6.55
2023-04-18T05:57:47.682Z,6.57
2023-04-18T05:58:19.252Z,6.63
2023-04-18T05:58:51.402Z,6.65
2023-04-18T05:59:23.175Z,6.65
2023-04-18T05:59:54.761Z,6.64
2023-04-18T06:00:26.915Z,6.64
2023-04-18T06:00:58.534Z,6.66
2023-04-18T06:01:30.119Z,6.69
2023-04-18T06:02:01.991Z,6.66
2023-04-18T06:02:33.695Z,6.63
2023-04-18T06:03:07.192Z,6.62
2023-04-18T06:03:41.759Z,6.62
2023-04-18T06:04:14.113Z,6.65
2023-04-18T06:04:46.325Z,6.66
2023-04-18T06:05:18.320Z,6.62
2023-04-18T06:05:50.291Z,6.68
2023-04-18T06:06:22.016Z,6.67
2023-04-18T06:06:53.687Z,6.72
2023-04-18T06:07:25.572Z,6.81
2023-04-18T06:07:57.341Z,6.81
2023-04-18T06:08:28.944Z,6.82
2023-04-18T06:09:00.987Z,6.90
2023-04-18T06:09:32.721Z,7.00
2023-04-18T06:10:07.765Z,7.09
2023-04-18T06:10:39.458Z,7.17
2023-04-18T06:11:11.061Z,7.15
2023-04-18T06:11:42.683Z,7.15
2023-04-18T06:12:14.260Z,7.16
2023-04-18T06:12:46.148Z,7.12
2023-04-18T06:13:17.832Z,7.12
2023-04-18T06:13:49.399Z,7.18
2023-04-18T06:14:20.923Z,7.27
2023-04-18T06:14:52.542Z,7.34
2023-04-18T06:15:24.379Z,7.38
2023-04-18T06:15:56.130Z,7.41
2023-04-18T06:16:27.791Z,7.41
2023-04-18T06:16:59.556Z,7.50
2023-04-18T06:17:31.347Z,7.50
2023-04-18T06:18:03.116Z,7.48
2023-04-18T06:18:34.734Z,7.43
2023-04-18T06:19:06.406Z,7.40
2023-04-18T06:19:39.521Z,7.41
2023-04-18T06:20:11.328Z,7.42
2023-04-18T06:20:43.989Z,7.52
2023-04-18T06:21:15.599Z,7.64
2023-04-18T06:21:48.443Z,7.81
2023-04-18T06:22:20.017Z,7.96
2023-04-18T06:22:51.604Z,7.88
2023-04-18T06:23:23.239Z,7.83
2023-04-18T06:23:55.099Z,7.82
2023-04-18T06:24:26.706Z,7.85
2023-04-18T06:24:58.275Z,8.00
2023-04-18T06:25:29.893Z,8.17
2023-04-18T06:26:01.448Z,8.08
2023-04-18T06:26:33.048Z,7.85
2023-04-18T06:27:05.447Z,7.88
2023-04-18T06:27:37.866Z,7.70
2023-04-18T06:28:09.693Z,7.64
2023-04-18T06:28:41.381Z,7.69
2023-04-18T06:29:13.053Z,7.74
2023-04-18T06:29:44.617Z,7.64
2023-04-18T06:30:16.230Z,7.49
2023-04-18T06:30:47.818Z,7.49
2023-04-18T06:31:19.428Z,7.42
2023-04-18T06:31:52.261Z,7.46
2023-04-18T06:32:23.965Z,7.47
2023-04-18T06:32:55.642Z,7.44
2023-04-18T06:33:27.206Z,7.36
2023-04-18T06:34:00.005Z,7.29
2023-04-18T06:34:31.634Z,7.21
2023-04-18T06:35:03.390Z,7.14
2023-04-18T06:35:34.994Z,7.07
2023-04-18T06:36:07.290Z,7.16
2023-04-18T06:36:38.986Z,7.19
2023-04-18T06:37:11.431Z,7.18
2023-04-18T06:37:44.892Z,7.13
2023-04-18T06:38:16.453Z,7.10
2023-04-18T06:38:48.027Z,7.20
2023-04-18T06:39:19.679Z,7.19
2023-04-18T06:39:51.311Z,7.21
2023-04-18T06:40:22.936Z,7.27
2023-04-18T06:40:54.463Z,7.41
2023-04-18T06:41:26.107Z,7.47
2023-04-18T06:41:58.202Z,7.81
2023-04-18T06:42:33.374Z,7.96
2023-04-18T06:43:04.929Z,8.14
2023-04-18T06:43:37.107Z,8.24
2023-04-18T06:44:08.746Z,8.43
2023-04-18T06:44:40.385Z,8.42
2023-04-18T06:45:12.171Z,8.48
2023-04-18T06:45:43.821Z,8.44
2023-04-18T06:46:16.019Z,8.50
2023-04-18T06:46:47.692Z,8.38
2023-04-18T06:47:19.358Z,8.30
2023-04-18T06:47:52.423Z,8.44
2023-04-18T06:48:24.035Z,8.52
2023-04-18T06:48:55.751Z,8.52
2023-04-18T06:49:27.304Z,8.53
2023-04-18T06:49:58.882Z,8.56
2023-04-18T06:50:30.620Z,8.72
2023-04-18T06:51:02.226Z,8.90
2023-04-18T06:51:34.205Z,8.92
2023-04-18T06:52:06.001Z,9.41
2023-04-18T06:52:40.667Z,9.68
2023-04-18T06:53:12.501Z,9.73
2023-04-18T06:53:45.944Z,9.79
2023-04-18T06:54:17.769Z,9.86
2023-04-18T06:54:49.339Z,9.85
2023-04-18T06:55:21.363Z,9.95
2023-04-18T06:55:52.935Z,10.43
2023-04-18T06:56:24.497Z,10.51
2023-04-18T06:56:56.091Z,10.78
2023-04-18T06:57:28.269Z,10.82
2023-04-18T06:58:00.488Z,10.92
2023-04-18T06:58:32.143Z,10.93
2023-04-18T06:59:03.648Z,10.83
2023-04-18T06:59:35.771Z,10.61
2023-04-18T07:00:07.832Z,10.47
2023-04-18T07:00:39.846Z,10.27
2023-04-18T07:01:11.418Z,10.11
2023-04-18T07:01:43.099Z,10.03
2023-04-18T07:02:15.430Z,10.08
2023-04-18T07:02:47.369Z,10.24
2023-04-18T07:03:19.129Z,10.44
2023-04-18T07:03:50.847Z,10.39
2023-04-18T07:04:22.679Z,10.56
2023-04-18T07:04:54.513Z,10.58
2023-04-18T07:05:26.123Z,10.54
2023-04-18T07:05:58.174Z,10.49
2023-04-18T07:06:29.862Z,9.75
2023-04-18T07:07:05.177Z,9.42
2023-04-18T07:07:36.877Z,9.55
2023-04-18T07:08:08.504Z,9.80
2023-04-18T07:08:40.081Z,9.91
2023-04-18T07:09:11.878Z,9.88
2023-04-18T07:09:43.390Z,10.11
2023-04-18T07:10:15.196Z,10.27
2023-04-18T07:10:46.785Z,10.15
2023-04-18T07:11:18.629Z,10.41
2023-04-18T07:11:52.455Z,10.71
2023-04-18T07:12:24.229Z,10.78
2023-04-18T07:12:55.846Z,10.79
2023-04-18T07:13:27.480Z,10.72
2023-04-18T07:13:59.027Z,10.51
2023-04-18T07:14:32.851Z,10.21
2023-04-18T07:15:06.221Z,10.31
2023-04-18T07:15:37.860Z,10.57
2023-04-18T07:16:09.595Z,10.66
2023-04-18T07:16:41.262Z,10.83